Time;durP1;ratioP1;P1;durP2;ratioP2;P2;SDS_P1;SDS_P2;PMS_P1;PMS_P2;Temp;Humidity;BMP_temperature;BMP_pressure;BME280_temperature;BME280_humidity;BME280_pressure;Samples;Min_cycle;Max_cycle;Signal;HPM_P1;HPM_P2
2022/12/05 00:01:20;;;;;;;33.50;19.20;;;;;;;;;;4981647;28;20143;-78
2022/12/05 00:03:47;;;;;;;33.65;18.52;;;;;;;;;;4986174;28;20065;-77
2022/12/05 00:06:13;;;;;;;30.55;17.55;;;;;;;;;;4983832;28;20027;-76
2022/12/05 00:08:39;;;;;;;32.72;18.95;;;;;;;;;;4951012;28;20146;-77
2022/12/05 00:11:10;;;;;;;31.05;18.05;;;;;;;;;;4987142;28;20030;-77
2022/12/05 00:13:38;;;;;;;32.28;18.75;;;;;;;;;;4985105;28;20140;-76
2022/12/05 00:16:06;;;;;;;31.02;18.98;;;;;;;;;;4982921;28;20084;-79
2022/12/05 00:18:32;;;;;;;29.38;18.58;;;;;;;;;;4986011;28;20803;-76
2022/12/05 00:20:58;;;;;;;28.13;17.60;;;;;;;;;;4987770;28;20074;-79
2022/12/05 00:23:24;;;;;;;32.40;18.65;;;;;;;;;;4990390;28;20045;-75
2022/12/05 00:25:50;;;;;;;30.88;18.02;;;;;;;;;;4990006;28;20034;-76
2022/12/05 00:28:16;;;;;;;29.77;17.83;;;;;;;;;;4971665;28;20034;-75
2022/12/05 00:30:42;;;;;;;29.48;18.35;;;;;;;;;;4989867;28;20498;-78
2022/12/05 00:33:08;;;;;;;30.67;17.20;;;;;;;;;;4970021;28;20048;-76
2022/12/05 00:35:35;;;;;;;28.50;16.98;;;;;;;;;;4988898;28;20483;-75
2022/12/05 00:38:01;;;;;;;28.00;17.20;;;;;;;;;;4989775;28;20056;-78
2022/12/05 00:40:27;;;;;;;30.52;18.75;;;;;;;;;;4990566;28;20065;-75
2022/12/05 00:42:53;;;;;;;32.58;17.05;;;;;;;;;;4955484;28;20042;-78
2022/12/05 00:45:19;;;;;;;29.15;18.48;;;;;;;;;;4989279;28;20069;-75
2022/12/05 00:47:45;;;;;;;28.25;17.02;;;;;;;;;;4972861;28;20035;-79
2022/12/05 00:50:11;;;;;;;28.83;17.38;;;;;;;;;;4987660;28;20048;-76
2022/12/05 00:52:37;;;;;;;25.25;16.85;;;;;;;;;;4987691;28;20030;-76
2022/12/05 00:55:03;;;;;;;31.50;17.52;;;;;;;;;;4990115;28;20034;-80
2022/12/05 00:57:29;;;;;;;28.38;16.95;;;;;;;;;;4986904;28;20499;-77
2022/12/05 00:59:55;;;;;;;31.50;17.95;;;;;;;;;;4989471;28;20565;-77
2022/12/05 01:02:21;;;;;;;28.40;17.08;;;;;;;;;;4987923;28;20034;-78
2022/12/05 01:04:47;;;;;;;28.83;17.98;;;;;;;;;;4987739;28;20382;-77
2022/12/05 01:07:13;;;;;;;32.42;17.67;;;;;;;;;;4989587;28;20394;-78
2022/12/05 01:09:39;;;;;;;31.17;17.33;;;;;;;;;;4989375;28;20039;-76
2022/12/05 01:12:06;;;;;;;28.23;16.88;;;;;;;;;;4990594;28;20048;-79
2022/12/05 01:14:32;;;;;;;29.38;17.05;;;;;;;;;;4985889;28;20030;-76
2022/12/05 01:16:58;;;;;;;32.30;18.42;;;;;;;;;;4989179;28;20049;-76
2022/12/05 01:19:26;;;;;;;29.58;17.48;;;;;;;;;;4972562;28;20033;-76
2022/12/05 01:21:52;;;;;;;29.27;18.00;;;;;;;;;;4985702;28;20463;-76
2022/12/05 01:24:19;;;;;;;33.80;18.75;;;;;;;;;;4987638;28;20149;-76
2022/12/05 01:26:45;;;;;;;28.30;17.90;;;;;;;;;;4984285;28;20038;-76
2022/12/05 01:29:12;;;;;;;33.28;19.05;;;;;;;;;;4987729;28;20081;-76
2022/12/05 01:31:38;;;;;;;31.50;19.15;;;;;;;;;;4986272;28;20268;-77
2022/12/05 01:34:06;;;;;;;35.17;20.05;;;;;;;;;;4990456;28;20026;-76
2022/12/05 01:36:33;;;;;;;31.10;19.15;;;;;;;;;;4987215;28;20100;-75
2022/12/05 01:38:59;;;;;;;33.90;19.00;;;;;;;;;;4989307;28;20077;-77
2022/12/05 01:41:30;;;;;;;32.95;19.20;;;;;;;;;;4987007;28;20026;-79
2022/12/05 01:43:58;;;;;;;33.20;19.40;;;;;;;;;;4988475;28;20058;-78
2022/12/05 01:46:24;;;;;;;33.03;19.05;;;;;;;;;;4970975;28;20482;-75
2022/12/05 01:48:53;;;;;;;32.28;19.23;;;;;;;;;;4987369;28;20068;-76
2022/12/05 01:51:20;;;;;;;35.72;21.10;;;;;;;;;;4989262;28;20086;-75
2022/12/05 01:53:46;;;;;;;29.92;19.25;;;;;;;;;;4967373;28;20034;-77
2022/12/05 01:56:12;;;;;;;34.63;20.70;;;;;;;;;;4986977;28;20402;-75
2022/12/05 01:58:40;;;;;;;35.85;20.25;;;;;;;;;;4986428;28;20038;-75
2022/12/05 02:01:06;;;;;;;33.53;18.65;;;;;;;;;;4985799;28;20565;-77
2022/12/05 02:03:32;;;;;;;32.92;18.85;;;;;;;;;;4986883;28;20022;-75
2022/12/05 02:05:58;;;;;;;37.25;19.35;;;;;;;;;;4986969;28;20110;-76
2022/12/05 02:08:27;;;;;;;38.30;19.35;;;;;;;;;;4970386;28;20550;-76
2022/12/05 02:10:55;;;;;;;31.50;19.02;;;;;;;;;;4990494;28;20018;-79
2022/12/05 02:13:24;;;;;;;32.67;18.25;;;;;;;;;;4986692;28;20407;-75
2022/12/05 02:16:19;;;;;;;30.30;16.95;;;;;;;;;;4986327;28;20379;-76
2022/12/05 02:18:50;;;;;;;31.85;18.52;;;;;;;;;;4971397;28;20145;-75
2022/12/05 02:21:16;;;;;;;32.03;18.25;;;;;;;;;;4987298;28;20513;-76
2022/12/05 02:24:00;;;;;;;29.63;16.83;;;;;;;;;;4987955;28;20369;-75
2022/12/05 02:26:47;;;;;;;27.30;17.48;;;;;;;;;;4987845;28;20029;-78
2022/12/05 02:29:26;;;;;;;28.50;15.52;;;;;;;;;;4989393;28;20403;-75
2022/12/05 02:32:16;;;;;;;27.17;14.82;;;;;;;;;;4975636;28;20100;-73
2022/12/05 02:34:56;;;;;;;26.50;13.98;;;;;;;;;;4992195;28;20037;-75
2022/12/05 02:37:27;;;;;;;24.63;14.95;;;;;;;;;;4985841;28;20349;-73
2022/12/05 02:39:53;;;;;;;25.02;13.48;;;;;;;;;;4986516;28;20022;-75
2022/12/05 02:42:32;;;;;;;24.80;14.13;;;;;;;;;;4986240;28;20034;-76
2022/12/05 02:45:08;;;;;;;24.20;15.30;;;;;;;;;;4985825;28;20044;-77
2022/12/05 02:47:37;;;;;;;20.75;12.73;;;;;;;;;;4984273;28;20479;-75
2022/12/05 02:50:04;;;;;;;22.80;13.30;;;;;;;;;;4988562;28;20026;-75
2022/12/05 02:52:31;;;;;;;28.30;16.00;;;;;;;;;;4987663;28;20030;-78
2022/12/05 02:54:57;;;;;;;18.45;11.70;;;;;;;;;;4987145;28;20390;-76
2022/12/05 02:57:23;;;;;;;17.40;11.52;;;;;;;;;;4986808;28;20037;-79
2022/12/05 02:59:50;;;;;;;18.67;11.55;;;;;;;;;;4984822;28;20117;-75
2022/12/05 03:02:27;;;;;;;18.27;11.43;;;;;;;;;;4985192;28;20100;-75
2022/12/05 03:04:55;;;;;;;15.43;11.20;;;;;;;;;;4983618;28;20514;-75
2022/12/05 03:07:23;;;;;;;16.60;11.73;;;;;;;;;;4986617;28;20053;-76
2022/12/05 03:09:52;;;;;;;18.15;11.32;;;;;;;;;;4986653;28;20517;-76
2022/12/05 03:12:21;;;;;;;16.30;10.30;;;;;;;;;;4985844;28;20054;-78
2022/12/05 03:14:50;;;;;;;14.85;10.45;;;;;;;;;;4986775;28;20062;-76
2022/12/05 03:17:20;;;;;;;14.95;9.98;;;;;;;;;;4983193;28;20026;-75
2022/12/05 03:20:19;;;;;;;12.35;9.52;;;;;;;;;;4983748;28;20046;-78
2022/12/05 03:22:54;;;;;;;13.80;9.80;;;;;;;;;;4961490;28;20094;-76
2022/12/05 03:25:23;;;;;;;15.05;9.63;;;;;;;;;;4987299;28;20093;-78
2022/12/05 03:27:55;;;;;;;13.20;9.10;;;;;;;;;;4984429;28;20470;-78
2022/12/05 03:30:22;;;;;;;15.52;10.02;;;;;;;;;;4986228;28;20410;-75
2022/12/05 03:33:02;;;;;;;16.95;10.50;;;;;;;;;;4987389;28;20506;-76
2022/12/05 03:35:35;;;;;;;13.35;9.13;;;;;;;;;;4986247;28;20451;-75
2022/12/05 03:38:01;;;;;;;14.20;10.07;;;;;;;;;;4984722;28;20033;-76
2022/12/05 03:40:33;;;;;;;13.93;8.90;;;;;;;;;;4986064;28;20379;-75
2022/12/05 03:43:06;;;;;;;12.25;8.75;;;;;;;;;;4985084;28;20566;-76
2022/12/05 03:45:37;;;;;;;12.48;8.38;;;;;;;;;;4986646;28;20068;-77
2022/12/05 03:48:41;;;;;;;10.45;7.90;;;;;;;;;;4983989;28;20038;-78
2022/12/05 03:51:09;;;;;;;12.23;8.85;;;;;;;;;;4878383;29;20029;-76
2022/12/05 03:53:40;;;;;;;13.40;8.63;;;;;;;;;;4881114;29;20048;-76
2022/12/05 03:56:12;;;;;;;11.77;8.80;;;;;;;;;;4938453;28;20044;-76
2022/12/05 03:58:40;;;;;;;13.45;8.05;;;;;;;;;;4981277;28;20060;-77
2022/12/05 04:01:08;;;;;;;13.52;8.25;;;;;;;;;;4983179;28;20030;-75
2022/12/05 04:03:50;;;;;;;11.40;7.90;;;;;;;;;;4985716;28;20023;-75
2022/12/05 04:06:36;;;;;;;11.65;7.72;;;;;;;;;;4986806;28;22780;-75
2022/12/05 04:09:14;;;;;;;13.25;8.00;;;;;;;;;;4967989;28;20054;-77
2022/12/05 04:11:43;;;;;;;10.30;7.35;;;;;;;;;;4981909;28;20042;-76
2022/12/05 04:14:12;;;;;;;16.13;8.30;;;;;;;;;;4984777;28;20030;-76
2022/12/05 04:19:25;;;;;;;16.70;8.75;;;;;;;;;;4985080;28;20040;-73
2022/12/05 04:21:53;;;;;;;11.60;8.10;;;;;;;;;;4982698;28;20038;-74
2022/12/05 04:27:22;;;;;;;10.40;8.18;;;;;;;;;;4984902;28;20038;-74
2022/12/05 04:29:54;;;;;;;12.38;8.25;;;;;;;;;;4964755;28;20030;-75
2022/12/05 04:32:23;;;;;;;12.50;7.78;;;;;;;;;;4969621;28;20101;-75
2022/12/05 04:34:52;;;;;;;13.90;7.38;;;;;;;;;;4986166;28;20030;-75
2022/12/05 04:37:20;;;;;;;13.57;7.82;;;;;;;;;;4982034;28;20347;-74
2022/12/05 04:39:50;;;;;;;13.18;7.75;;;;;;;;;;4986336;28;20034;-73
2022/12/05 04:42:19;;;;;;;13.57;8.00;;;;;;;;;;4986709;28;20022;-75
2022/12/05 04:44:57;;;;;;;12.18;7.40;;;;;;;;;;4981398;28;20046;-74
2022/12/05 04:47:26;;;;;;;11.77;7.88;;;;;;;;;;4984103;28;20026;-74
2022/12/05 04:49:53;;;;;;;12.85;8.02;;;;;;;;;;4983022;28;20049;-75
2022/12/05 04:52:19;;;;;;;15.00;8.27;;;;;;;;;;4985059;28;20044;-75
2022/12/05 04:54:48;;;;;;;12.32;8.13;;;;;;;;;;4985202;28;20038;-75
2022/12/05 04:57:33;;;;;;;11.95;8.15;;;;;;;;;;4984509;28;20041;-75
2022/12/05 04:59:59;;;;;;;11.02;7.50;;;;;;;;;;4984867;28;20491;-75
2022/12/05 05:02:30;;;;;;;12.23;8.27;;;;;;;;;;4984561;28;20033;-75
2022/12/05 05:04:57;;;;;;;18.65;8.80;;;;;;;;;;4986430;28;20034;-76
2022/12/05 05:07:23;;;;;;;13.05;7.82;;;;;;;;;;4968612;28;20058;-75
2022/12/05 05:09:49;;;;;;;12.25;8.10;;;;;;;;;;4983927;28;20129;-75
2022/12/05 05:12:15;;;;;;;15.52;8.93;;;;;;;;;;4972643;28;20502;-75
2022/12/05 05:14:42;;;;;;;13.05;8.85;;;;;;;;;;4987262;28;20477;-74
2022/12/05 05:17:08;;;;;;;10.75;8.13;;;;;;;;;;4987507;28;20034;-74
2022/12/05 05:19:34;;;;;;;12.18;8.32;;;;;;;;;;4986432;28;20439;-74
2022/12/05 05:22:00;;;;;;;15.95;8.50;;;;;;;;;;4988874;28;20391;-75
2022/12/05 05:24:26;;;;;;;13.02;8.27;;;;;;;;;;4986962;28;20030;-75
2022/12/05 05:26:52;;;;;;;16.48;9.93;;;;;;;;;;4987071;28;20038;-74
2022/12/05 05:29:18;;;;;;;15.95;8.52;;;;;;;;;;4988826;28;20038;-77
2022/12/05 05:31:44;;;;;;;13.70;8.93;;;;;;;;;;4987689;28;20081;-75
2022/12/05 05:34:14;;;;;;;11.95;8.65;;;;;;;;;;4986364;28;20072;-75
2022/12/05 05:36:40;;;;;;;14.30;8.88;;;;;;;;;;4989441;28;20077;-75
2022/12/05 05:39:11;;;;;;;14.52;8.82;;;;;;;;;;4987143;28;20116;-77
2022/12/05 05:41:37;;;;;;;14.60;9.45;;;;;;;;;;4989532;28;20088;-74
2022/12/05 05:44:03;;;;;;;14.60;9.02;;;;;;;;;;4985394;28;20081;-73
2022/12/05 05:46:31;;;;;;;15.88;9.60;;;;;;;;;;4986987;28;20030;-75
2022/12/05 05:48:57;;;;;;;14.15;8.75;;;;;;;;;;4981751;28;20042;-75
2022/12/05 05:51:26;;;;;;;13.57;8.10;;;;;;;;;;4982321;28;20483;-75
2022/12/05 05:53:52;;;;;;;17.10;9.52;;;;;;;;;;4986783;28;20022;-74
2022/12/05 05:56:19;;;;;;;17.27;9.45;;;;;;;;;;4986484;28;20037;-75
2022/12/05 05:58:45;;;;;;;14.00;8.60;;;;;;;;;;4970773;28;20129;-75
2022/12/05 06:01:19;;;;;;;13.18;8.68;;;;;;;;;;4988078;28;20045;-75
2022/12/05 06:03:45;;;;;;;15.02;9.25;;;;;;;;;;4985152;28;20039;-75
2022/12/05 06:06:12;;;;;;;17.90;9.15;;;;;;;;;;4983958;28;20380;-76
2022/12/05 06:08:40;;;;;;;16.05;9.18;;;;;;;;;;4988787;28;20057;-76
2022/12/05 06:11:10;;;;;;;13.48;9.07;;;;;;;;;;4987701;28;20092;-77
2022/12/05 06:13:36;;;;;;;15.90;9.45;;;;;;;;;;4982112;28;20121;-75
2022/12/05 06:16:04;;;;;;;13.48;8.60;;;;;;;;;;4984601;28;20061;-75
2022/12/05 06:18:30;;;;;;;14.10;8.95;;;;;;;;;;4976774;28;20061;-75
2022/12/05 06:20:57;;;;;;;14.90;8.57;;;;;;;;;;4975927;28;20039;-78
2022/12/05 06:23:23;;;;;;;13.95;8.68;;;;;;;;;;4972252;28;20582;-80
2022/12/05 06:25:50;;;;;;;11.02;7.55;;;;;;;;;;4976146;28;20125;-77
2022/12/05 06:28:17;;;;;;;16.70;11.52;;;;;;;;;;4977892;28;20034;-75
2022/12/05 06:30:43;;;;;;;33.10;16.23;;;;;;;;;;4984101;28;20034;-75
2022/12/05 06:33:09;;;;;;;16.63;9.95;;;;;;;;;;4991281;28;20034;-78
2022/12/05 06:35:35;;;;;;;14.60;8.77;;;;;;;;;;4990621;28;20026;-77
2022/12/05 06:38:01;;;;;;;16.35;9.73;;;;;;;;;;4991628;28;20201;-76
2022/12/05 06:40:27;;;;;;;15.77;8.98;;;;;;;;;;4975999;28;20106;-77
2022/12/05 06:42:53;;;;;;;13.05;8.48;;;;;;;;;;4988540;28;20038;-77
2022/12/05 06:45:19;;;;;;;15.95;9.00;;;;;;;;;;4979822;28;20027;-76
2022/12/05 06:47:45;;;;;;;11.10;8.35;;;;;;;;;;4989597;28;20049;-73
2022/12/05 06:50:11;;;;;;;15.40;8.70;;;;;;;;;;4990793;28;20037;-75
2022/12/05 06:52:38;;;;;;;13.57;7.95;;;;;;;;;;4962369;28;20038;-75
2022/12/05 06:55:04;;;;;;;14.50;8.13;;;;;;;;;;4987861;28;20037;-75
2022/12/05 06:57:30;;;;;;;13.35;7.65;;;;;;;;;;4990299;28;20029;-74
2022/12/05 07:01:37;;;;;;;12.93;7.78;;;;;;;;;;4980817;28;20031;-74
2022/12/05 07:02:46;;;;;;;16.73;8.23;;;;;;;;;;4988977;28;20513;-74
2022/12/05 07:05:12;;;;;;;17.40;8.48;;;;;;;;;;4978135;28;20439;-75
2022/12/05 07:07:38;;;;;;;12.15;7.18;;;;;;;;;;4977235;28;20483;-72
2022/12/05 07:10:05;;;;;;;36.35;17.27;;;;;;;;;;4973364;28;20137;-74
2022/12/05 07:12:32;;;;;;;19.30;9.35;;;;;;;;;;4975655;28;20034;-73
2022/12/05 07:14:59;;;;;;;15.65;8.90;;;;;;;;;;4974914;28;20140;-73
2022/12/05 07:17:25;;;;;;;11.18;7.53;;;;;;;;;;4973313;28;20034;-75
2022/12/05 07:19:52;;;;;;;14.20;7.63;;;;;;;;;;4972155;28;20505;-74
2022/12/05 07:22:18;;;;;;;13.50;7.97;;;;;;;;;;4973523;28;20019;-77
2022/12/05 07:24:44;;;;;;;15.77;8.32;;;;;;;;;;4979743;28;20065;-73
2022/12/05 07:27:11;;;;;;;16.73;8.07;;;;;;;;;;4969102;28;20113;-76
2022/12/05 07:29:37;;;;;;;15.75;8.43;;;;;;;;;;4972316;28;20047;-74
2022/12/05 07:32:03;;;;;;;16.15;8.65;;;;;;;;;;4970960;28;20038;-71
2022/12/05 07:34:29;;;;;;;13.80;8.68;;;;;;;;;;4976561;28;20380;-74
2022/12/05 07:36:55;;;;;;;12.30;8.57;;;;;;;;;;4972998;28;20038;-75
2022/12/05 07:39:21;;;;;;;15.93;9.77;;;;;;;;;;4980244;28;20065;-74
2022/12/05 07:41:47;;;;;;;20.17;9.70;;;;;;;;;;4959208;28;20555;-73
2022/12/05 07:44:13;;;;;;;12.85;8.30;;;;;;;;;;4975249;28;20030;-74
2022/12/05 07:46:39;;;;;;;15.18;9.35;;;;;;;;;;4972413;28;20401;-73
2022/12/05 07:49:07;;;;;;;17.70;8.70;;;;;;;;;;4973135;28;20047;-74
2022/12/05 07:51:34;;;;;;;21.92;9.40;;;;;;;;;;4975757;28;20038;-75
2022/12/05 07:54:00;;;;;;;21.70;8.65;;;;;;;;;;4984675;28;20034;-74
2022/12/05 07:56:27;;;;;;;27.05;12.48;;;;;;;;;;4970124;28;20038;-75
2022/12/05 07:58:53;;;;;;;23.48;12.60;;;;;;;;;;4973194;28;20434;-73
2022/12/05 08:01:20;;;;;;;15.32;8.63;;;;;;;;;;4974084;28;20077;-75
2022/12/05 08:03:47;;;;;;;15.40;8.55;;;;;;;;;;4976080;28;20034;-74
2022/12/05 08:06:14;;;;;;;19.45;8.20;;;;;;;;;;4941029;28;20030;-76
2022/12/05 08:08:41;;;;;;;15.93;9.20;;;;;;;;;;4972048;28;20047;-75
2022/12/05 08:11:08;;;;;;;16.15;9.70;;;;;;;;;;4962731;28;20030;-75
2022/12/05 08:13:35;;;;;;;19.02;9.77;;;;;;;;;;4978476;28;20061;-77
2022/12/05 08:16:02;;;;;;;19.95;8.63;;;;;;;;;;4976807;28;20031;-75
2022/12/05 08:18:28;;;;;;;15.60;8.27;;;;;;;;;;4974535;28;20107;-75
2022/12/05 08:20:54;;;;;;;17.55;8.20;;;;;;;;;;4964629;28;20509;-76
2022/12/05 08:23:20;;;;;;;17.17;8.38;;;;;;;;;;4968817;28;20388;-77
2022/12/05 08:25:46;;;;;;;17.80;8.95;;;;;;;;;;4979565;28;20034;-75
2022/12/05 08:28:12;;;;;;;16.63;9.02;;;;;;;;;;4982945;28;20046;-74
2022/12/05 08:30:38;;;;;;;27.67;12.93;;;;;;;;;;4981283;28;20034;-75
2022/12/05 08:33:04;;;;;;;18.23;9.18;;;;;;;;;;4973674;28;20093;-76
2022/12/05 08:35:30;;;;;;;17.42;8.55;;;;;;;;;;4970211;28;20045;-76
2022/12/05 08:37:56;;;;;;;16.30;9.05;;;;;;;;;;4960790;28;20030;-77
2022/12/05 08:40:22;;;;;;;18.45;8.43;;;;;;;;;;4975837;28;20444;-75
2022/12/05 08:42:49;;;;;;;13.68;7.88;;;;;;;;;;4977060;28;20474;-79
2022/12/05 08:45:15;;;;;;;16.05;8.07;;;;;;;;;;4973599;28;20042;-74
2022/12/05 08:47:41;;;;;;;18.20;9.65;;;;;;;;;;4994569;28;20022;-75
2022/12/05 08:50:07;;;;;;;18.05;8.73;;;;;;;;;;4989519;28;20050;-75
2022/12/05 08:52:33;;;;;;;17.17;8.02;;;;;;;;;;4994467;28;20085;-77
2022/12/05 08:54:59;;;;;;;13.90;7.93;;;;;;;;;;4989689;28;20050;-76
2022/12/05 08:57:25;;;;;;;20.30;8.93;;;;;;;;;;4991676;28;20046;-76
2022/12/05 08:59:51;;;;;;;13.50;7.63;;;;;;;;;;4992789;28;20081;-76
2022/12/05 09:02:17;;;;;;;23.10;8.30;;;;;;;;;;4993720;28;20023;-79
2022/12/05 09:04:43;;;;;;;24.50;7.88;;;;;;;;;;4982803;28;20528;-77
2022/12/05 09:07:09;;;;;;;14.43;8.68;;;;;;;;;;4989679;28;20437;-75
2022/12/05 09:09:36;;;;;;;17.15;8.15;;;;;;;;;;4979824;28;20050;-77
2022/12/05 09:12:02;;;;;;;19.92;9.05;;;;;;;;;;4975658;28;20046;-78
2022/12/05 09:14:31;;;;;;;15.73;8.05;;;;;;;;;;4975405;28;20034;-81
2022/12/05 09:16:58;;;;;;;22.02;7.93;;;;;;;;;;4976255;28;20058;-78
2022/12/05 09:19:26;;;;;;;26.52;14.75;;;;;;;;;;4977457;28;20376;-78
2022/12/05 09:21:52;;;;;;;22.42;10.20;;;;;;;;;;4981704;28;20025;-80
2022/12/05 09:24:18;;;;;;;14.43;7.45;;;;;;;;;;4965531;28;20178;-78
2022/12/05 09:26:45;;;;;;;16.70;7.05;;;;;;;;;;4978524;28;20224;-75
2022/12/05 09:29:12;;;;;;;16.25;7.95;;;;;;;;;;4979406;28;20035;-80
2022/12/05 09:31:41;;;;;;;16.10;7.32;;;;;;;;;;4981214;28;20538;-75
2022/12/05 09:34:08;;;;;;;20.95;7.78;;;;;;;;;;4977558;28;20117;-74
2022/12/05 09:36:34;;;;;;;17.75;7.50;;;;;;;;;;4975020;28;20039;-74
2022/12/05 09:39:02;;;;;;;18.75;9.38;;;;;;;;;;4976141;28;20038;-74
2022/12/05 09:42:09;;;;;;;13.88;8.52;;;;;;;;;;4979288;28;20027;-73
2022/12/05 09:44:34;;;;;;;22.77;8.70;;;;;;;;;;4978244;28;20035;-75
2022/12/05 09:47:03;;;;;;;23.40;9.27;;;;;;;;;;4966568;28;20022;-74
2022/12/05 09:49:30;;;;;;;21.73;8.23;;;;;;;;;;4975613;28;20042;-79
2022/12/05 09:51:57;;;;;;;15.98;8.82;;;;;;;;;;4981715;28;20132;-80
2022/12/05 09:54:24;;;;;;;17.20;8.98;;;;;;;;;;4967121;28;20114;-77
2022/12/05 09:56:51;;;;;;;23.88;8.85;;;;;;;;;;4977686;28;20030;-77
2022/12/05 09:59:19;;;;;;;16.45;9.80;;;;;;;;;;4974910;28;20485;-76
2022/12/05 10:01:48;;;;;;;16.80;9.27;;;;;;;;;;4978360;28;20432;-76
2022/12/05 10:04:17;;;;;;;22.65;9.15;;;;;;;;;;4976836;28;20094;-75
2022/12/05 10:06:50;;;;;;;19.48;9.20;;;;;;;;;;4977856;28;20113;-75
2022/12/05 10:09:34;;;;;;;26.58;10.55;;;;;;;;;;4979355;28;20054;-80
2022/12/05 10:12:09;;;;;;;24.80;9.50;;;;;;;;;;4977744;28;20142;-77
2022/12/05 10:14:47;;;;;;;21.23;9.75;;;;;;;;;;4974986;28;20030;-75
2022/12/05 10:17:23;;;;;;;19.88;9.07;;;;;;;;;;4975846;28;20525;-77
2022/12/05 10:19:49;;;;;;;20.35;9.35;;;;;;;;;;4978223;28;20034;-74
2022/12/05 10:22:19;;;;;;;22.17;9.32;;;;;;;;;;4978897;28;20035;-74
2022/12/05 10:24:51;;;;;;;20.25;9.85;;;;;;;;;;4973823;28;20033;-75
2022/12/05 10:27:23;;;;;;;14.60;8.02;;;;;;;;;;4973693;28;20053;-75
2022/12/05 10:29:52;;;;;;;21.95;9.43;;;;;;;;;;4972542;28;20100;-75
2022/12/05 10:32:21;;;;;;;18.00;8.60;;;;;;;;;;4969527;28;20061;-74
2022/12/05 10:34:50;;;;;;;22.85;8.75;;;;;;;;;;4961766;28;20034;-76
2022/12/05 10:37:25;;;;;;;21.58;10.02;;;;;;;;;;4972891;28;20023;-74
2022/12/05 10:39:52;;;;;;;20.15;9.18;;;;;;;;;;4979518;28;20057;-78
2022/12/05 10:42:24;;;;;;;17.98;8.95;;;;;;;;;;4978627;28;20104;-73
2022/12/05 10:44:55;;;;;;;13.57;8.95;;;;;;;;;;4978572;28;20435;-74
2022/12/05 10:47:21;;;;;;;15.65;9.25;;;;;;;;;;4972154;28;20085;-74
2022/12/05 10:49:47;;;;;;;19.75;8.88;;;;;;;;;;4949141;28;20513;-74
2022/12/05 10:52:13;;;;;;;16.27;8.85;;;;;;;;;;4973793;28;20113;-75
2022/12/05 10:54:44;;;;;;;20.55;8.43;;;;;;;;;;4974575;28;20129;-76
2022/12/05 10:57:24;;;;;;;18.73;8.95;;;;;;;;;;4979080;28;20031;-75
2022/12/05 10:59:50;;;;;;;20.83;10.18;;;;;;;;;;4977775;28;20037;-77
2022/12/05 11:02:21;;;;;;;21.00;9.75;;;;;;;;;;4958766;28;20468;-75
2022/12/05 11:04:47;;;;;;;15.32;8.23;;;;;;;;;;4976370;28;20035;-75
2022/12/05 11:07:28;;;;;;;22.52;10.10;;;;;;;;;;4964891;28;20061;-74
2022/12/05 11:09:55;;;;;;;24.73;10.30;;;;;;;;;;4961745;28;20042;-79
2022/12/05 11:12:22;;;;;;;21.27;9.50;;;;;;;;;;4978977;28;20035;-75
2022/12/05 11:14:56;;;;;;;17.48;8.68;;;;;;;;;;4978958;28;20038;-75
2022/12/05 11:17:24;;;;;;;19.08;9.13;;;;;;;;;;4975338;28;20096;-75
2022/12/05 11:19:50;;;;;;;13.32;8.95;;;;;;;;;;4975038;28;20049;-75
2022/12/05 11:22:16;;;;;;;18.75;8.98;;;;;;;;;;4971507;28;20062;-79
2022/12/05 11:24:42;;;;;;;28.02;12.48;;;;;;;;;;4983204;28;20105;-74
2022/12/05 11:27:29;;;;;;;20.88;11.82;;;;;;;;;;4991794;28;20073;-73
2022/12/05 11:30:02;;;;;;;15.75;7.68;;;;;;;;;;4973038;28;20406;-75
2022/12/05 11:32:29;;;;;;;27.95;9.57;;;;;;;;;;4976585;28;20034;-75
2022/12/05 11:35:23;;;;;;;21.27;9.15;;;;;;;;;;4975253;28;20034;-78
2022/12/05 11:37:51;;;;;;;14.95;8.55;;;;;;;;;;4975200;28;20100;-79
2022/12/05 11:40:26;;;;;;;15.23;8.10;;;;;;;;;;4977670;28;20402;-75
2022/12/05 11:42:52;;;;;;;16.40;7.68;;;;;;;;;;4975138;28;20039;-76
2022/12/05 11:45:30;;;;;;;18.52;8.85;;;;;;;;;;4974510;28;20031;-74
2022/12/05 11:48:03;;;;;;;14.00;7.38;;;;;;;;;;4971149;28;20478;-75
2022/12/05 11:50:32;;;;;;;12.85;7.13;;;;;;;;;;4974346;28;20403;-77
2022/12/05 11:53:17;;;;;;;18.95;8.13;;;;;;;;;;4972574;28;20558;-78
2022/12/05 11:55:45;;;;;;;13.52;6.70;;;;;;;;;;4965482;28;20039;-78
2022/12/05 11:58:25;;;;;;;17.60;7.72;;;;;;;;;;4974499;28;20106;-76
2022/12/05 12:01:10;;;;;;;12.68;7.65;;;;;;;;;;4971069;28;20026;-76
2022/12/05 12:03:45;;;;;;;10.38;6.95;;;;;;;;;;4970994;28;20072;-78
2022/12/05 12:06:23;;;;;;;10.73;7.53;;;;;;;;;;4971556;28;20117;-77
2022/12/05 12:09:04;;;;;;;15.68;7.68;;;;;;;;;;4975307;28;20396;-78
2022/12/05 12:11:33;;;;;;;17.02;8.00;;;;;;;;;;4973887;28;20038;-79
2022/12/05 12:14:08;;;;;;;20.38;9.57;;;;;;;;;;4983560;28;20038;-75
2022/12/05 12:16:47;;;;;;;32.80;17.63;;;;;;;;;;4982403;28;20034;-73
2022/12/05 12:19:19;;;;;;;18.73;7.03;;;;;;;;;;4979312;28;20402;-75
2022/12/05 12:21:52;;;;;;;13.38;6.57;;;;;;;;;;4976774;28;20092;-76
2022/12/05 12:24:27;;;;;;;14.07;6.45;;;;;;;;;;4985500;28;20022;-74
2022/12/05 12:27:15;;;;;;;19.25;7.15;;;;;;;;;;4978160;28;20069;-75
2022/12/05 12:29:41;;;;;;;18.30;8.43;;;;;;;;;;4975982;28;20038;-75
2022/12/05 12:32:22;;;;;;;13.27;6.25;;;;;;;;;;4976558;28;20034;-74
2022/12/05 12:35:08;;;;;;;9.93;5.57;;;;;;;;;;4980614;28;20134;-78
2022/12/05 12:37:41;;;;;;;9.70;5.40;;;;;;;;;;4976848;28;20030;-74
2022/12/05 12:40:16;;;;;;;9.95;5.28;;;;;;;;;;4976779;28;20115;-75
2022/12/05 12:42:42;;;;;;;12.27;5.20;;;;;;;;;;4985728;28;20490;-77
2022/12/05 12:45:08;;;;;;;13.48;5.63;;;;;;;;;;4979539;28;20035;-74
2022/12/05 12:47:40;;;;;;;8.60;5.28;;;;;;;;;;4973685;28;20463;-74
2022/12/05 12:50:09;;;;;;;8.75;4.97;;;;;;;;;;4977007;28;20041;-74
2022/12/05 12:53:01;;;;;;;7.60;4.53;;;;;;;;;;4975830;28;20035;-76
2022/12/05 12:55:40;;;;;;;8.10;4.32;;;;;;;;;;4969171;28;20034;-75
2022/12/05 12:58:06;;;;;;;6.25;3.90;;;;;;;;;;4976785;28;20030;-76
2022/12/05 13:01:01;;;;;;;8.23;4.68;;;;;;;;;;4979835;28;20390;-75
2022/12/05 13:03:35;;;;;;;9.35;4.35;;;;;;;;;;4965544;28;20110;-75
2022/12/05 13:06:07;;;;;;;7.75;3.75;;;;;;;;;;4977241;28;20029;-75
2022/12/05 13:08:35;;;;;;;8.90;3.90;;;;;;;;;;4974802;28;20057;-76
2022/12/05 13:11:03;;;;;;;8.65;3.83;;;;;;;;;;4975966;28;20522;-73
2022/12/05 13:13:35;;;;;;;8.07;4.00;;;;;;;;;;4980131;28;20109;-73
2022/12/05 13:16:05;;;;;;;4.10;3.00;;;;;;;;;;4978137;28;20511;-74
2022/12/05 13:18:31;;;;;;;8.95;3.42;;;;;;;;;;4979725;28;20031;-73
2022/12/05 13:20:58;;;;;;;7.03;3.28;;;;;;;;;;4973937;28;20100;-75
2022/12/05 13:23:26;;;;;;;8.18;3.30;;;;;;;;;;4978287;28;20031;-74
2022/12/05 13:25:53;;;;;;;7.03;3.72;;;;;;;;;;4981265;28;20537;-74
2022/12/05 13:28:30;;;;;;;5.63;3.35;;;;;;;;;;4972540;28;20043;-75
2022/12/05 13:30:57;;;;;;;5.22;2.83;;;;;;;;;;4977424;28;20027;-74
2022/12/05 13:33:30;;;;;;;6.47;2.78;;;;;;;;;;4965219;28;20486;-73
2022/12/05 13:44:30;;;;;;;7.47;2.60;;;;;;;;;;4986296;28;20044;-73
2022/12/05 13:46:56;;;;;;;8.90;3.03;;;;;;;;;;4978495;28;20057;-74
2022/12/05 13:49:32;;;;;;;6.20;2.38;;;;;;;;;;4975654;28;20055;-73
2022/12/05 13:52:05;;;;;;;5.28;2.83;;;;;;;;;;4980595;28;20026;-74
2022/12/05 13:54:32;;;;;;;4.20;2.63;;;;;;;;;;4982705;28;20030;-73
2022/12/05 13:57:03;;;;;;;6.63;3.05;;;;;;;;;;4969258;28;20129;-73
2022/12/05 13:59:48;;;;;;;5.53;3.33;;;;;;;;;;4971646;28;20045;-73
2022/12/05 14:02:34;;;;;;;6.78;2.97;;;;;;;;;;4978374;28;20145;-74
2022/12/05 14:05:01;;;;;;;7.25;2.72;;;;;;;;;;4983545;28;20038;-73
2022/12/05 14:07:37;;;;;;;7.97;2.83;;;;;;;;;;4963929;28;20045;-74
2022/12/05 14:10:04;;;;;;;6.80;2.80;;;;;;;;;;4975601;28;20034;-75
2022/12/05 14:12:31;;;;;;;4.60;2.60;;;;;;;;;;4960174;28;20035;-73
2022/12/05 14:14:57;;;;;;;6.72;3.15;;;;;;;;;;4977675;28;20114;-73
2022/12/05 14:17:27;;;;;;;7.40;3.25;;;;;;;;;;4978546;28;20035;-73
2022/12/05 14:20:12;;;;;;;4.53;2.97;;;;;;;;;;4975849;28;20387;-73
2022/12/05 14:22:53;;;;;;;6.82;3.28;;;;;;;;;;4982910;28;20057;-73
2022/12/05 14:25:38;;;;;;;5.30;2.78;;;;;;;;;;4974845;28;20031;-74
2022/12/05 14:28:23;;;;;;;5.95;3.25;;;;;;;;;;4975919;28;20047;-73
2022/12/05 14:30:49;;;;;;;5.95;2.63;;;;;;;;;;4985669;28;20093;-73
2022/12/05 14:33:17;;;;;;;5.85;2.78;;;;;;;;;;4977474;28;20141;-75
2022/12/05 14:35:49;;;;;;;7.00;3.05;;;;;;;;;;4975134;28;20034;-75
2022/12/05 14:38:27;;;;;;;6.85;3.08;;;;;;;;;;4983226;28;20022;-75
2022/12/05 14:40:53;;;;;;;6.82;2.85;;;;;;;;;;4976737;28;20031;-72
2022/12/05 14:43:30;;;;;;;10.10;3.95;;;;;;;;;;4980939;28;20034;-75
2022/12/05 14:45:59;;;;;;;6.97;3.08;;;;;;;;;;4977667;28;20033;-72
2022/12/05 14:48:34;;;;;;;17.98;8.40;;;;;;;;;;4977645;28;20684;-73
2022/12/05 14:51:00;;;;;;;15.20;7.60;;;;;;;;;;4997284;28;20034;-74
2022/12/05 14:53:29;;;;;;;6.10;3.17;;;;;;;;;;4990190;28;20033;-74
2022/12/05 14:56:15;;;;;;;8.68;3.60;;;;;;;;;;4981184;28;20033;-74
2022/12/05 14:58:44;;;;;;;9.75;3.65;;;;;;;;;;4962268;28;20041;-75